Time;durP1;ratioP1;P1;durP2;ratioP2;P2;SDS_P1;SDS_P2;PMS_P1;PMS_P2;Temp;Humidity;BMP_temperature;BMP_pressure;BME280_temperature;BME280_humidity;BME280_pressure;Samples;Min_cycle;Max_cycle;Signal;HPM_P1;HPM_P2
2021/10/05 00:00:40;;;;;;;3.95;1.08;;;15.70;87.20;;;;;;5074065;28;20492;-74
2021/10/05 00:03:05;;;;;;;5.78;1.10;;;15.80;87.50;;;;;;5058932;28;20118;-74
2021/10/05 00:05:32;;;;;;;4.47;0.77;;;15.80;87.70;;;;;;5073952;28;20040;-75
2021/10/05 00:07:58;;;;;;;3.95;0.90;;;15.90;87.40;;;;;;5073741;28;20077;-75
2021/10/05 00:10:24;;;;;;;10.93;1.35;;;15.90;87.80;;;;;;5073400;28;20463;-75
2021/10/05 00:12:49;;;;;;;5.55;1.10;;;15.90;87.20;;;;;;5073936;28;20033;-75
2021/10/05 00:15:16;;;;;;;7.05;0.73;;;15.90;87.30;;;;;;5073915;28;20056;-75
2021/10/05 00:17:41;;;;;;;8.50;1.20;;;15.90;87.60;;;;;;5075241;28;20047;-75
2021/10/05 00:20:10;;;;;;;6.68;0.98;;;16.00;87.50;;;;;;5073650;28;20397;-75
2021/10/05 00:22:35;;;;;;;5.97;1.00;;;16.00;87.50;;;;;;5059901;28;20020;-76
2021/10/05 00:25:02;;;;;;;7.88;0.80;;;16.00;87.40;;;;;;5055977;28;20075;-75
2021/10/05 00:27:27;;;;;;;4.47;0.90;;;16.00;87.70;;;;;;5073463;28;20028;-75
2021/10/05 00:29:53;;;;;;;3.88;0.98;;;16.00;87.80;;;;;;5073847;28;20024;-75
2021/10/05 00:32:18;;;;;;;5.38;1.05;;;16.00;87.70;;;;;;5073218;28;20409;-75
2021/10/05 00:34:44;;;;;;;3.42;0.63;;;15.90;88.10;;;;;;5073432;28;20063;-75
2021/10/05 00:37:09;;;;;;;7.70;1.00;;;15.90;88.60;;;;;;5073053;28;20035;-75
2021/10/05 00:39:35;;;;;;;5.88;0.80;;;15.90;88.30;;;;;;5072622;28;20405;-75
2021/10/05 00:42:03;;;;;;;5.10;1.05;;;15.90;88.00;;;;;;5073642;28;20025;-75
2021/10/05 00:44:31;;;;;;;6.53;1.02;;;15.90;87.90;;;;;;5072908;28;20024;-75
2021/10/05 00:47:07;;;;;;;4.15;0.70;;;15.90;88.30;;;;;;5073187;28;20032;-75
2021/10/05 00:49:33;;;;;;;4.45;0.80;;;15.90;88.20;;;;;;5072853;28;20020;-74
2021/10/05 00:52:02;;;;;;;3.88;0.80;;;15.90;88.30;;;;;;5055499;28;20067;-75
2021/10/05 00:54:31;;;;;;;4.78;0.77;;;15.90;88.30;;;;;;5038975;28;20096;-75
2021/10/05 00:56:57;;;;;;;4.20;0.70;;;15.90;88.40;;;;;;5052266;28;20037;-75
2021/10/05 00:59:22;;;;;;;3.67;0.68;;;16.00;88.80;;;;;;5072859;28;20039;-75
2021/10/05 01:01:49;;;;;;;5.35;0.80;;;16.00;88.10;;;;;;5072798;28;20044;-75
2021/10/05 01:04:15;;;;;;;3.92;0.80;;;16.00;88.30;;;;;;5072602;28;20037;-74
2021/10/05 01:06:53;;;;;;;6.60;1.05;;;16.00;88.50;;;;;;5072807;28;20078;-75
2021/10/05 01:09:19;;;;;;;6.63;0.80;;;16.00;88.00;;;;;;5055166;28;22762;-75
2021/10/05 01:11:44;;;;;;;5.05;0.80;;;16.00;88.60;;;;;;5059462;28;20021;-74
2021/10/05 01:14:10;;;;;;;7.53;0.90;;;16.00;88.30;;;;;;5072548;28;20103;-75
2021/10/05 01:16:36;;;;;;;5.82;0.70;;;16.00;89.00;;;;;;5073355;28;20165;-74
2021/10/05 01:19:02;;;;;;;5.80;1.00;;;16.00;88.80;;;;;;5072430;28;20532;-74
2021/10/05 01:21:28;;;;;;;4.03;0.63;;;16.00;89.40;;;;;;5072333;28;20516;-75
2021/10/05 01:23:54;;;;;;;4.18;0.82;;;16.10;89.30;;;;;;5072451;28;20021;-74
2021/10/05 01:26:20;;;;;;;6.82;1.45;;;16.20;89.00;;;;;;5072238;28;20509;-75
2021/10/05 01:28:46;;;;;;;5.78;0.82;;;16.20;89.50;;;;;;5072258;28;20017;-76
2021/10/05 01:31:11;;;;;;;7.05;0.80;;;16.20;89.10;;;;;;5072308;28;20016;-75
2021/10/05 01:33:37;;;;;;;3.55;1.02;;;16.20;89.30;;;;;;5072328;28;20416;-74
2021/10/05 01:36:03;;;;;;;4.55;0.80;;;16.20;89.60;;;;;;5072240;28;20509;-75
2021/10/05 01:38:29;;;;;;;4.13;0.60;;;16.20;89.90;;;;;;5071409;28;20040;-74
2021/10/05 01:40:54;;;;;;;5.72;1.02;;;16.20;90.00;;;;;;5058359;28;20032;-75
2021/10/05 01:43:20;;;;;;;7.43;1.42;;;16.20;90.00;;;;;;5071941;28;20024;-75
2021/10/05 01:45:46;;;;;;;5.25;0.82;;;16.20;90.30;;;;;;5053771;28;20489;-76
2021/10/05 01:48:11;;;;;;;5.53;0.70;;;16.20;90.10;;;;;;5055888;28;20032;-75
2021/10/05 01:50:37;;;;;;;7.95;1.00;;;16.10;90.40;;;;;;5072222;28;20028;-74
2021/10/05 01:53:04;;;;;;;2.55;0.60;;;16.10;90.40;;;;;;5071148;28;20028;-75
2021/10/05 01:55:29;;;;;;;3.67;0.60;;;16.00;90.50;;;;;;5071018;28;20528;-75
2021/10/05 01:57:55;;;;;;;3.95;0.70;;;16.00;90.90;;;;;;5071675;28;20029;-74
2021/10/05 02:00:20;;;;;;;2.85;0.47;;;15.90;90.80;;;;;;5071725;28;20039;-75
2021/10/05 02:02:48;;;;;;;2.10;0.50;;;15.90;91.00;;;;;;5072268;28;20028;-75
2021/10/05 02:05:14;;;;;;;2.30;0.55;;;15.90;90.90;;;;;;5071591;28;20033;-75
2021/10/05 02:07:40;;;;;;;4.28;0.70;;;15.90;90.90;;;;;;5071213;28;20027;-75
2021/10/05 02:10:07;;;;;;;2.22;0.40;;;15.90;91.00;;;;;;5071472;28;20024;-75
2021/10/05 02:12:33;;;;;;;3.63;0.52;;;15.90;91.10;;;;;;5071628;28;20056;-75
2021/10/05 02:14:59;;;;;;;4.40;0.63;;;15.90;91.20;;;;;;5071668;28;20063;-75
2021/10/05 02:17:24;;;;;;;1.85;0.40;;;15.90;91.20;;;;;;5056988;28;20028;-75
2021/10/05 02:19:50;;;;;;;3.33;0.65;;;15.90;91.30;;;;;;5071222;28;20059;-75
2021/10/05 02:22:16;;;;;;;3.22;0.40;;;15.80;91.40;;;;;;5070939;28;20107;-75
2021/10/05 02:24:45;;;;;;;3.22;0.40;;;15.80;91.40;;;;;;5071536;28;20116;-75
2021/10/05 02:27:14;;;;;;;2.25;0.30;;;15.80;91.40;;;;;;5071171;28;20054;-75
2021/10/05 02:29:41;;;;;;;1.40;0.30;;;15.80;91.50;;;;;;5069905;28;20055;-75
2021/10/05 02:32:09;;;;;;;1.38;0.32;;;15.80;91.40;;;;;;5071361;28;20028;-75
2021/10/05 02:34:36;;;;;;;2.60;0.40;;;15.80;91.50;;;;;;5071292;28;20028;-75
2021/10/05 02:37:04;;;;;;;1.77;0.45;;;15.80;91.40;;;;;;5070909;28;20501;-75
2021/10/05 02:39:29;;;;;;;1.00;0.20;;;15.80;91.70;;;;;;5070920;28;20135;-74
2021/10/05 02:41:55;;;;;;;1.70;0.30;;;15.80;91.80;;;;;;5057968;28;20163;-75
2021/10/05 02:44:21;;;;;;;0.85;0.10;;;15.70;91.80;;;;;;5057327;28;20029;-75
2021/10/05 02:46:48;;;;;;;1.08;0.40;;;15.70;92.00;;;;;;5057554;28;20036;-75
2021/10/05 02:49:14;;;;;;;1.20;0.20;;;15.60;92.00;;;;;;5070690;28;20016;-75
2021/10/05 02:51:40;;;;;;;0.73;0.20;;;15.70;92.00;;;;;;5053244;28;20373;-75
2021/10/05 02:54:05;;;;;;;1.70;0.22;;;15.70;92.50;;;;;;5071412;28;20029;-75
2021/10/05 02:56:31;;;;;;;1.25;0.35;;;15.70;92.30;;;;;;5071703;28;20064;-75
2021/10/05 02:58:57;;;;;;;2.25;0.38;;;15.60;92.20;;;;;;5070873;28;20073;-75
2021/10/05 03:01:22;;;;;;;2.45;0.20;;;15.60;92.40;;;;;;5057363;28;20443;-75
2021/10/05 03:03:48;;;;;;;0.68;0.30;;;15.60;92.60;;;;;;5070509;28;20032;-75
2021/10/05 03:06:14;;;;;;;1.33;0.20;;;15.60;92.40;;;;;;5070996;28;20104;-75
2021/10/05 03:08:41;;;;;;;1.13;0.10;;;15.60;92.30;;;;;;5075552;28;20028;-75
2021/10/05 03:11:07;;;;;;;0.82;0.20;;;15.70;92.90;;;;;;5074970;28;20040;-75
2021/10/05 03:13:35;;;;;;;0.93;0.20;;;15.60;92.60;;;;;;5061290;28;20025;-76
2021/10/05 03:16:02;;;;;;;0.73;0.20;;;15.70;92.80;;;;;;5074803;28;20020;-75
2021/10/05 03:18:28;;;;;;;0.75;0.20;;;15.70;92.70;;;;;;5074591;28;20413;-75
2021/10/05 03:20:53;;;;;;;0.75;0.15;;;15.70;93.20;;;;;;5075289;28;20469;-75
2021/10/05 03:23:19;;;;;;;0.40;0.10;;;15.70;93.20;;;;;;5074789;28;20036;-75
2021/10/05 03:25:44;;;;;;;0.40;0.20;;;15.60;93.00;;;;;;5074600;28;20047;-75
2021/10/05 03:28:10;;;;;;;1.00;0.25;;;15.60;93.60;;;;;;5074571;28;20020;-76
2021/10/05 03:30:36;;;;;;;0.88;0.20;;;15.60;93.40;;;;;;5074536;28;20493;-77
2021/10/05 03:33:01;;;;;;;0.63;0.20;;;15.50;93.20;;;;;;5074338;28;20524;-75
2021/10/05 03:35:27;;;;;;;0.22;0.10;;;15.60;93.40;;;;;;5074801;28;20048;-75
2021/10/05 03:37:52;;;;;;;0.52;0.20;;;15.50;94.00;;;;;;5074108;28;20045;-76
2021/10/05 03:40:18;;;;;;;0.43;0.20;;;15.50;93.70;;;;;;5059746;28;20037;-76
2021/10/05 03:42:44;;;;;;;1.42;0.28;;;15.50;94.20;;;;;;5074508;28;20028;-76
2021/10/05 03:45:10;;;;;;;1.25;0.20;;;15.50;93.50;;;;;;5074828;28;20135;-77
2021/10/05 03:47:36;;;;;;;0.70;0.20;;;15.50;93.90;;;;;;5074945;28;20082;-76
2021/10/05 03:50:07;;;;;;;0.68;0.22;;;15.50;94.00;;;;;;5059375;28;20393;-76
2021/10/05 03:52:33;;;;;;;0.30;0.20;;;15.50;93.70;;;;;;5059347;28;20078;-76
2021/10/05 03:54:59;;;;;;;0.73;0.10;;;15.50;93.90;;;;;;5074140;28;20443;-76
2021/10/05 03:57:24;;;;;;;0.40;0.10;;;15.50;93.90;;;;;;5074181;28;20028;-76
2021/10/05 03:59:50;;;;;;;0.55;0.15;;;15.60;94.00;;;;;;5074600;28;20043;-76
2021/10/05 04:02:16;;;;;;;0.10;0.10;;;15.50;94.10;;;;;;5072283;28;20052;-76
2021/10/05 04:04:41;;;;;;;0.30;0.10;;;15.60;94.20;;;;;;5073588;28;20552;-76
2021/10/05 04:07:07;;;;;;;0.88;0.10;;;15.60;94.50;;;;;;5073400;28;20139;-76
2021/10/05 04:09:33;;;;;;;0.57;0.10;;;15.60;94.10;;;;;;5073506;28;20512;-76
2021/10/05 04:11:58;;;;;;;0.75;0.10;;;15.60;94.30;;;;;;5073658;28;20032;-75
2021/10/05 04:14:24;;;;;;;0.00;0.00;;;15.60;93.80;;;;;;5073609;28;20107;-75
2021/10/05 04:16:50;;;;;;;1.80;0.20;;;15.40;93.00;;;;;;5072785;28;20496;-75
2021/10/05 04:19:15;;;;;;;0.30;0.10;;;15.20;93.40;;;;;;5072285;28;20032;-76
2021/10/05 04:21:42;;;;;;;0.20;0.10;;;15.10;93.10;;;;;;5073144;28;20082;-75
2021/10/05 04:24:07;;;;;;;0.40;0.10;;;14.90;92.90;;;;;;5072992;28;20032;-76
2021/10/05 04:26:33;;;;;;;0.65;0.10;;;14.80;93.00;;;;;;5074776;28;20086;-76
2021/10/05 04:28:59;;;;;;;0.47;0.10;;;14.70;93.20;;;;;;5075207;28;20366;-76
2021/10/05 04:31:25;;;;;;;1.95;0.20;;;14.70;93.20;;;;;;5077611;28;20024;-75
2021/10/05 04:33:51;;;;;;;0.32;0.10;;;14.70;93.40;;;;;;5072944;28;20378;-76
2021/10/05 04:36:17;;;;;;;0.60;0.10;;;14.60;93.40;;;;;;5073002;28;20039;-76
2021/10/05 04:38:43;;;;;;;0.95;0.43;;;14.60;93.40;;;;;;5073477;28;20074;-76
2021/10/05 04:41:08;;;;;;;0.57;0.10;;;14.60;93.40;;;;;;5072733;28;20044;-75
2021/10/05 04:43:34;;;;;;;0.95;0.35;;;14.50;93.30;;;;;;5072673;28;20031;-76
2021/10/05 04:46:00;;;;;;;1.55;0.10;;;14.50;93.40;;;;;;5072256;28;20044;-76
2021/10/05 04:48:25;;;;;;;1.30;0.20;;;14.50;93.30;;;;;;5056485;28;20033;-76
2021/10/05 04:50:51;;;;;;;0.85;0.20;;;14.50;93.20;;;;;;5073461;28;20050;-76
2021/10/05 04:53:17;;;;;;;1.02;0.20;;;14.40;93.10;;;;;;5072538;28;20120;-76
2021/10/05 04:55:44;;;;;;;2.15;0.30;;;14.40;93.10;;;;;;5072321;28;20581;-76
2021/10/05 04:58:11;;;;;;;1.58;0.32;;;14.30;92.90;;;;;;5072436;28;20020;-76
2021/10/05 05:00:37;;;;;;;1.67;0.30;;;14.20;92.80;;;;;;5072205;28;20086;-76
2021/10/05 05:03:03;;;;;;;0.98;0.22;;;14.20;92.80;;;;;;5072585;28;20021;-76
2021/10/05 05:05:29;;;;;;;2.13;0.30;;;14.10;92.70;;;;;;5072464;28;20033;-76
2021/10/05 05:07:59;;;;;;;2.83;0.35;;;14.00;92.70;;;;;;5058811;28;20031;-76
2021/10/05 05:10:25;;;;;;;1.10;0.28;;;14.00;93.20;;;;;;5072261;28;20489;-75
2021/10/05 05:12:50;;;;;;;0.93;0.20;;;14.00;93.00;;;;;;5054313;28;20035;-76
2021/10/05 05:15:16;;;;;;;1.73;0.40;;;14.00;92.80;;;;;;5071722;28;20028;-75
2021/10/05 05:17:42;;;;;;;2.75;0.40;;;14.00;93.10;;;;;;5072655;28;20024;-75
2021/10/05 05:20:08;;;;;;;2.33;0.30;;;14.00;93.00;;;;;;5071849;28;20377;-75
2021/10/05 05:22:36;;;;;;;1.83;0.40;;;14.00;93.00;;;;;;5071465;28;20489;-75
2021/10/05 05:25:03;;;;;;;3.05;0.43;;;14.00;92.90;;;;;;5071635;28;20037;-75
2021/10/05 05:27:29;;;;;;;4.35;0.50;;;14.00;93.00;;;;;;5072025;28;20416;-75
2021/10/05 05:29:54;;;;;;;1.80;0.45;;;13.90;93.00;;;;;;5071340;28;20036;-75
2021/10/05 05:32:20;;;;;;;2.08;0.60;;;13.90;93.10;;;;;;5071316;28;20111;-76
2021/10/05 05:34:45;;;;;;;3.58;0.60;;;13.90;92.80;;;;;;5071683;28;20032;-77
2021/10/05 05:37:11;;;;;;;4.28;0.57;;;13.90;92.90;;;;;;5071953;28;20024;-75
2021/10/05 05:39:40;;;;;;;3.28;0.60;;;13.90;93.00;;;;;;5071297;28;20048;-75
2021/10/05 05:42:11;;;;;;;6.03;0.85;;;13.80;92.80;;;;;;5071808;28;20016;-75
2021/10/05 05:44:40;;;;;;;3.65;0.50;;;13.80;92.70;;;;;;5071504;28;20048;-75
2021/10/05 05:47:06;;;;;;;7.03;2.13;;;13.70;92.60;;;;;;5071769;28;20031;-74
2021/10/05 05:49:32;;;;;;;2.90;0.80;;;13.60;92.60;;;;;;5071251;28;20032;-75
2021/10/05 05:51:58;;;;;;;2.58;0.80;;;13.60;92.70;;;;;;5053315;28;20124;-75
2021/10/05 05:54:24;;;;;;;3.10;0.52;;;13.60;92.90;;;;;;5073031;28;22851;-74
2021/10/05 05:56:50;;;;;;;3.20;0.88;;;13.50;92.80;;;;;;5083630;28;20035;-74
2021/10/05 05:59:16;;;;;;;3.08;0.57;;;13.50;93.20;;;;;;5070748;28;20028;-74
2021/10/05 06:01:42;;;;;;;4.80;0.70;;;13.50;92.70;;;;;;5070882;28;20082;-74
2021/10/05 06:04:07;;;;;;;2.90;0.70;;;13.50;92.70;;;;;;5071455;28;20082;-75
2021/10/05 06:06:33;;;;;;;2.70;0.70;;;13.40;92.70;;;;;;5071427;28;20032;-75
2021/10/05 06:09:01;;;;;;;3.80;0.82;;;13.40;92.80;;;;;;5071306;28;20029;-74
2021/10/05 06:11:33;;;;;;;3.80;1.00;;;13.40;92.70;;;;;;5071440;28;20077;-75
2021/10/05 06:13:59;;;;;;;5.53;0.80;;;13.30;92.60;;;;;;5070253;28;20029;-75
2021/10/05 06:16:25;;;;;;;3.30;0.50;;;13.30;92.60;;;;;;5056970;28;20359;-75
2021/10/05 06:18:51;;;;;;;4.78;0.70;;;13.30;92.90;;;;;;5071134;28;20107;-75
2021/10/05 06:21:17;;;;;;;5.47;1.02;;;13.30;92.90;;;;;;5070939;28;24636;-76
2021/10/05 06:23:42;;;;;;;3.35;0.90;;;13.20;92.70;;;;;;5071370;28;20032;-76
2021/10/05 06:26:08;;;;;;;5.68;0.75;;;13.30;92.70;;;;;;5073487;28;20101;-76
2021/10/05 06:28:34;;;;;;;6.35;0.98;;;13.20;92.70;;;;;;5056121;28;20124;-76
2021/10/05 06:31:01;;;;;;;3.63;0.70;;;13.20;93.00;;;;;;5070061;28;20035;-76
2021/10/05 06:33:27;;;;;;;7.05;1.08;;;13.30;93.10;;;;;;5054963;28;20028;-76
2021/10/05 06:35:53;;;;;;;5.70;0.93;;;13.30;92.90;;;;;;5071050;28;20047;-75
2021/10/05 06:38:19;;;;;;;4.53;0.80;;;13.40;92.90;;;;;;5070115;28;20044;-76
2021/10/05 06:40:45;;;;;;;5.43;1.00;;;13.40;92.60;;;;;;5067515;28;20020;-75
2021/10/05 06:43:10;;;;;;;5.85;1.17;;;13.40;92.80;;;;;;5065421;28;20051;-75
2021/10/05 06:45:37;;;;;;;3.90;0.73;;;13.50;93.10;;;;;;5050414;28;20135;-75
2021/10/05 06:48:03;;;;;;;5.47;0.90;;;13.60;93.20;;;;;;5070199;28;20450;-75
2021/10/05 06:50:32;;;;;;;3.90;0.80;;;13.60;92.80;;;;;;5070249;28;20046;-75
2021/10/05 06:52:58;;;;;;;3.97;0.80;;;13.70;92.90;;;;;;5053365;28;20055;-75
2021/10/05 06:55:24;;;;;;;4.45;0.95;;;13.80;92.90;;;;;;5070329;28;20086;-74
2021/10/05 06:57:50;;;;;;;7.50;1.50;;;13.80;92.70;;;;;;5069405;28;20041;-81
2021/10/05 07:00:16;;;;;;;4.60;1.42;;;13.90;92.60;;;;;;5060709;28;20039;-81
2021/10/05 07:02:43;;;;;;;5.50;1.40;;;14.00;92.60;;;;;;5068568;28;20029;-78
2021/10/05 07:05:10;;;;;;;5.47;0.80;;;14.10;92.40;;;;;;5068141;28;20051;-80
2021/10/05 07:07:40;;;;;;;5.95;1.42;;;14.10;92.40;;;;;;5067081;28;20439;-77
2021/10/05 07:10:06;;;;;;;2.90;0.90;;;14.20;92.20;;;;;;5069114;28;20032;-80
2021/10/05 07:12:32;;;;;;;3.88;0.80;;;14.30;92.10;;;;;;5068029;28;20401;-80
2021/10/05 07:14:58;;;;;;;5.35;0.98;;;14.30;91.90;;;;;;5069737;28;20029;-78
2021/10/05 07:17:23;;;;;;;4.20;0.90;;;14.40;91.90;;;;;;5067557;28;20076;-80
2021/10/05 07:19:49;;;;;;;8.27;1.15;;;14.40;91.70;;;;;;5069345;28;20032;-77
2021/10/05 07:22:15;;;;;;;3.97;0.82;;;14.50;92.00;;;;;;5066950;28;20535;-76
2021/10/05 07:24:40;;;;;;;4.72;1.10;;;14.50;91.60;;;;;;5051772;28;20093;-74
2021/10/05 07:27:06;;;;;;;7.85;2.03;;;14.60;91.30;;;;;;5070200;28;20020;-75
2021/10/05 07:29:31;;;;;;;3.28;0.98;;;14.70;91.40;;;;;;5067544;28;20044;-75
2021/10/05 07:31:57;;;;;;;5.90;0.85;;;14.70;91.50;;;;;;5067975;28;20029;-75
2021/10/05 07:34:23;;;;;;;6.30;0.93;;;14.90;91.40;;;;;;5053372;28;20060;-77
2021/10/05 07:36:48;;;;;;;4.90;1.05;;;14.90;91.20;;;;;;5067214;28;20504;-75
2021/10/05 07:39:14;;;;;;;5.75;1.15;;;15.00;91.20;;;;;;5058044;28;20448;-77
2021/10/05 07:41:43;;;;;;;3.17;0.88;;;15.10;91.10;;;;;;5018953;28;20435;-75
2021/10/05 07:44:10;;;;;;;5.43;1.10;;;15.20;90.80;;;;;;4995104;28;20136;-75
2021/10/05 07:46:36;;;;;;;3.15;0.85;;;15.30;90.70;;;;;;5048469;28;20286;-75
2021/10/05 07:49:02;;;;;;;6.72;1.10;;;15.40;90.60;;;;;;5067549;28;20032;-74
2021/10/05 07:51:28;;;;;;;4.78;0.93;;;15.50;90.80;;;;;;5069005;28;20030;-75
2021/10/05 07:53:53;;;;;;;4.00;0.70;;;15.70;90.60;;;;;;5071384;28;20058;-74
2021/10/05 07:56:19;;;;;;;7.35;1.00;;;15.80;90.40;;;;;;5073153;28;20035;-74
2021/10/05 07:58:44;;;;;;;6.20;1.13;;;15.90;90.10;;;;;;5073861;28;20037;-74
2021/10/05 08:01:10;;;;;;;3.80;0.90;;;16.00;90.00;;;;;;5073330;28;20032;-74
2021/10/05 08:03:36;;;;;;;8.25;1.30;;;16.10;89.20;;;;;;5073526;28;20039;-75
2021/10/05 08:06:01;;;;;;;4.13;1.00;;;16.10;89.10;;;;;;5059460;28;20032;-76
2021/10/05 08:08:28;;;;;;;2.58;0.75;;;16.20;87.70;;;;;;5073743;28;20040;-75
2021/10/05 08:10:54;;;;;;;4.70;1.00;;;16.30;88.00;;;;;;5073530;28;20032;-75
2021/10/05 08:13:20;;;;;;;6.63;1.05;;;16.40;87.90;;;;;;5073192;28;20396;-75
2021/10/05 08:15:46;;;;;;;7.50;1.15;;;16.50;87.90;;;;;;5073829;28;20081;-74
2021/10/05 08:18:12;;;;;;;5.20;1.17;;;16.70;88.70;;;;;;5073707;28;20021;-75
2021/10/05 08:20:39;;;;;;;5.68;1.10;;;16.80;86.60;;;;;;5074036;28;20040;-75
2021/10/05 08:23:05;;;;;;;3.75;0.77;;;16.90;86.80;;;;;;5073193;28;20058;-76
2021/10/05 08:25:31;;;;;;;7.03;1.08;;;17.10;87.00;;;;;;5072990;28;20067;-76
2021/10/05 08:27:57;;;;;;;4.88;1.00;;;17.30;85.20;;;;;;5073390;28;20055;-75
2021/10/05 08:30:23;;;;;;;6.93;1.20;;;17.30;84.20;;;;;;5073365;28;20028;-75
2021/10/05 08:32:49;;;;;;;5.10;1.13;;;17.40;84.60;;;;;;5060658;28;20027;-74
2021/10/05 08:35:14;;;;;;;5.68;0.80;;;17.60;85.50;;;;;;5058282;28;20525;-74
2021/10/05 08:37:41;;;;;;;9.85;1.02;;;17.80;82.90;;;;;;5072144;28;20115;-74
2021/10/05 08:40:08;;;;;;;4.68;1.00;;;17.90;82.00;;;;;;5072784;28;20503;-74
2021/10/05 08:42:35;;;;;;;4.53;1.02;;;18.20;84.10;;;;;;5073098;28;20035;-75
2021/10/05 08:45:00;;;;;;;3.13;1.15;;;18.50;83.50;;;;;;5073441;28;20094;-74
2021/10/05 08:47:28;;;;;;;5.88;1.00;;;18.40;79.80;;;;;;5072637;28;20024;-74
2021/10/05 08:49:54;;;;;;;3.67;0.82;;;18.40;80.10;;;;;;5072273;28;20064;-69
2021/10/05 08:52:20;;;;;;;6.00;1.67;;;18.40;80.50;;;;;;5080213;28;20044;-72
2021/10/05 08:54:46;;;;;;;4.93;1.15;;;18.50;80.60;;;;;;5072324;28;20036;-73
2021/10/05 08:57:12;;;;;;;4.25;0.80;;;18.70;80.10;;;;;;5071507;28;20480;-73
2021/10/05 08:59:37;;;;;;;7.45;1.17;;;19.00;80.00;;;;;;5072560;28;20094;-72
2021/10/05 09:02:17;;;;;;;3.30;0.80;;;19.10;79.40;;;;;;5072014;28;20489;-73
2021/10/05 09:04:44;;;;;;;3.10;0.82;;;19.10;80.00;;;;;;5071952;28;20033;-74
2021/10/05 09:07:22;;;;;;;5.68;1.27;;;19.20;79.10;;;;;;5071580;28;20039;-73
2021/10/05 09:10:02;;;;;;;6.30;1.20;;;19.20;77.20;;;;;;5071143;28;20064;-74
2021/10/05 09:12:33;;;;;;;6.07;1.30;;;19.50;80.00;;;;;;5056484;28;20033;-78
2021/10/05 09:15:00;;;;;;;7.93;0.95;;;19.80;76.40;;;;;;5068677;28;20051;-77
2021/10/05 09:17:28;;;;;;;4.75;1.10;;;19.90;77.40;;;;;;5071705;28;20025;-77
2021/10/05 09:19:56;;;;;;;6.55;0.98;;;20.20;74.20;;;;;;5070741;28;20032;-75
2021/10/05 09:22:29;;;;;;;5.38;1.10;;;20.40;74.70;;;;;;5071377;28;20516;-75
2021/10/05 09:24:59;;;;;;;3.63;0.95;;;20.60;74.70;;;;;;5071576;28;20020;-76
2021/10/05 09:27:26;;;;;;;2.67;0.63;;;20.80;74.80;;;;;;5071707;28;20030;-75
2021/10/05 09:29:53;;;;;;;4.63;0.90;;;20.80;71.80;;;;;;5062049;28;20021;-74
2021/10/05 09:32:21;;;;;;;6.68;1.10;;;20.80;71.90;;;;;;5070950;28;20060;-75
2021/10/05 09:34:51;;;;;;;4.82;0.93;;;20.90;72.70;;;;;;5071015;28;20032;-74
2021/10/05 09:37:35;;;;;;;7.95;1.50;;;21.20;73.60;;;;;;5070645;28;20435;-74
2021/10/05 09:40:12;;;;;;;5.88;0.82;;;21.30;71.70;;;;;;5070727;28;20123;-75
2021/10/05 09:42:41;;;;;;;5.05;1.15;;;21.30;71.40;;;;;;5058564;28;20036;-74
2021/10/05 09:45:16;;;;;;;2.35;0.80;;;21.20;69.40;;;;;;5071367;28;20123;-74
2021/10/05 09:47:46;;;;;;;6.03;0.90;;;21.20;70.10;;;;;;5069881;28;20052;-74
2021/10/05 09:50:32;;;;;;;3.78;0.88;;;21.40;69.30;;;;;;5068650;28;20043;-76
2021/10/05 09:53:04;;;;;;;4.43;1.10;;;21.60;70.80;;;;;;5067682;28;20104;-74
2021/10/05 09:55:42;;;;;;;5.07;0.70;;;21.60;69.70;;;;;;5070772;28;20021;-76
2021/10/05 09:58:09;;;;;;;4.75;0.70;;;21.70;68.80;;;;;;5071070;28;20032;-79
2021/10/05 10:00:38;;;;;;;2.83;0.60;;;21.20;66.90;;;;;;5070813;28;20532;-77
2021/10/05 10:03:06;;;;;;;3.75;1.02;;;21.30;69.50;;;;;;5070603;28;20094;-77
2021/10/05 10:05:32;;;;;;;4.07;0.90;;;21.80;69.20;;;;;;5069751;28;20517;-77
2021/10/05 10:07:58;;;;;;;5.13;0.93;;;22.10;67.80;;;;;;5071247;28;20055;-79
2021/10/05 10:10:27;;;;;;;5.43;0.80;;;22.10;65.20;;;;;;5071133;28;20627;-76
2021/10/05 10:12:55;;;;;;;9.05;1.17;;;22.20;65.40;;;;;;5071315;28;20025;-75
2021/10/05 10:15:42;;;;;;;6.47;0.98;;;21.80;63.40;;;;;;5053920;28;20041;-64
2021/10/05 10:18:10;;;;;;;5.90;1.00;;;21.40;68.30;;;;;;5061404;28;20059;-68
2021/10/05 10:20:38;;;;;;;4.78;0.95;;;21.00;65.30;;;;;;5074469;28;20060;-72
2021/10/05 10:23:25;;;;;;;3.40;1.13;;;20.80;67.90;;;;;;5084313;28;20028;-71
2021/10/05 10:26:04;;;;;;;5.68;1.40;;;20.80;69.10;;;;;;5078076;28;20040;-70
2021/10/05 10:28:35;;;;;;;7.10;1.48;;;20.50;67.90;;;;;;5079263;28;20066;-68
2021/10/05 10:31:03;;;;;;;3.00;1.02;;;20.30;65.80;;;;;;5082398;28;20046;-70
2021/10/05 10:33:41;;;;;;;6.22;0.82;;;20.20;68.00;;;;;;5082877;28;20496;-70
2021/10/05 10:36:07;;;;;;;3.35;0.93;;;20.30;66.40;;;;;;5076825;28;20392;-70
2021/10/05 10:38:35;;;;;;;3.85;0.70;;;20.30;67.40;;;;;;5071149;28;20040;-73
2021/10/05 10:41:16;;;;;;;3.28;0.57;;;20.20;67.60;;;;;;5070916;28;20539;-73
2021/10/05 10:43:54;;;;;;;3.28;0.85;;;20.10;69.00;;;;;;5070787;28;20469;-73
2021/10/05 10:46:26;;;;;;;5.63;0.93;;;20.40;69.10;;;;;;5055198;28;20032;-73
2021/10/05 10:48:57;;;;;;;4.40;1.20;;;20.50;66.70;;;;;;5070627;28;20020;-75
2021/10/05 10:51:28;;;;;;;3.65;0.90;;;20.50;68.20;;;;;;5071021;28;20045;-73
2021/10/05 10:54:00;;;;;;;4.30;1.02;;;20.70;66.00;;;;;;5078173;28;20098;-74
2021/10/05 10:56:36;;;;;;;3.28;0.80;;;21.00;67.90;;;;;;5067767;28;20023;-74
2021/10/05 10:59:10;;;;;;;2.83;0.68;;;21.20;67.50;;;;;;5058073;28;20040;-74
2021/10/05 11:01:43;;;;;;;4.95;0.70;;;21.60;67.20;;;;;;5076790;28;20099;-74
2021/10/05 11:04:10;;;;;;;4.15;1.02;;;21.80;64.10;;;;;;5071575;28;20486;-74
2021/10/05 11:06:36;;;;;;;5.80;0.93;;;21.60;61.90;;;;;;5070857;28;20029;-74
2021/10/05 11:09:03;;;;;;;3.15;0.68;;;21.50;62.40;;;;;;5073608;28;20083;-74
2021/10/05 11:11:43;;;;;;;3.97;0.75;;;21.40;62.40;;;;;;5070676;28;20032;-72
2021/10/05 11:14:24;;;;;;;2.88;0.70;;;21.50;63.30;;;;;;5070243;28;20028;-74
2021/10/05 11:17:04;;;;;;;3.13;0.80;;;22.20;65.40;;;;;;5071244;28;20033;-75
2021/10/05 11:19:35;;;;;;;4.88;0.88;;;22.70;63.30;;;;;;5064656;28;20249;-74
2021/10/05 11:22:03;;;;;;;3.65;0.88;;;22.90;60.70;;;;;;5059232;28;20028;-74
2021/10/05 11:24:43;;;;;;;4.57;0.80;;;23.30;60.40;;;;;;5054874;28;20025;-74
2021/10/05 11:27:17;;;;;;;2.60;0.73;;;23.80;61.20;;;;;;5068502;28;20056;-74
2021/10/05 11:29:43;;;;;;;2.20;0.60;;;24.30;58.60;;;;;;5072736;28;20400;-74
2021/10/05 11:32:13;;;;;;;3.15;1.35;;;24.50;57.60;;;;;;5077842;28;20054;-74
2021/10/05 11:34:40;;;;;;;3.75;0.80;;;24.20;53.80;;;;;;5071497;28;20401;-74
2021/10/05 11:37:08;;;;;;;3.33;0.70;;;23.50;52.50;;;;;;5078291;28;20024;-73
2021/10/05 11:39:35;;;;;;;3.33;0.60;;;22.70;53.50;;;;;;5074994;28;20409;-74
2021/10/05 11:42:10;;;;;;;2.97;0.50;;;22.00;54.30;;;;;;5087761;28;20024;-74
2021/10/05 11:44:40;;;;;;;3.25;0.50;;;21.70;57.30;;;;;;5073984;28;20093;-73
2021/10/05 11:47:09;;;;;;;2.33;0.70;;;22.00;57.20;;;;;;5077045;28;20059;-74
2021/10/05 11:49:37;;;;;;;1.65;0.65;;;22.70;56.20;;;;;;5075736;28;20524;-73
2021/10/05 11:52:04;;;;;;;1.10;0.40;;;23.60;58.70;;;;;;5072927;28;20060;-73
2021/10/05 11:54:33;;;;;;;2.13;0.70;;;24.40;57.20;;;;;;5073160;28;20397;-72
2021/10/05 11:57:01;;;;;;;2.20;0.60;;;25.10;54.60;;;;;;5075505;28;20016;-73
2021/10/05 11:59:32;;;;;;;1.80;0.80;;;25.30;51.80;;;;;;5066160;28;20047;-72
2021/10/05 12:02:06;;;;;;;3.80;0.80;;;25.50;50.30;;;;;;5050855;28;20029;-73
2021/10/05 12:04:32;;;;;;;1.45;0.60;;;26.20;50.00;;;;;;5048685;28;20067;-71
2021/10/05 12:07:20;;;;;;;1.58;0.68;;;27.10;51.20;;;;;;5053564;28;20036;-71
2021/10/05 12:10:01;;;;;;;1.88;0.60;;;27.70;46.80;;;;;;5035375;28;20044;-71
2021/10/05 12:12:30;;;;;;;;;;;27.90;47.30;;;;;;5054232;28;20032;-72
2021/10/05 12:15:00;;;;;;;1.92;0.60;;;28.30;52.80;;;;;;5060506;28;19934;-72
2021/10/05 12:17:26;;;;;;;2.80;0.80;;;28.30;44.70;;;;;;5071945;28;20024;-72
2021/10/05 12:20:13;;;;;;;1.63;0.63;;;28.40;39.60;;;;;;5072113;28;20024;-72
2021/10/05 12:22:45;;;;;;;1.73;0.70;;;28.40;43.40;;;;;;5048785;28;20028;-72
2021/10/05 12:25:24;;;;;;;4.03;0.68;;;27.90;37.80;;;;;;5065870;28;20048;-71
2021/10/05 12:27:52;;;;;;;2.30;0.57;;;26.70;41.80;;;;;;5040666;28;20047;-71
2021/10/05 12:30:26;;;;;;;1.80;0.60;;;25.50;42.40;;;;;;5070370;28;20023;-71
2021/10/05 12:32:55;;;;;;;1.67;0.50;;;24.40;45.20;;;;;;5072597;28;20040;-72
2021/10/05 12:35:32;;;;;;;2.25;0.60;;;23.50;45.10;;;;;;5071492;28;20024;-71
2021/10/05 12:38:08;;;;;;;1.55;0.43;;;23.50;52.60;;;;;;5072579;28;20028;-72
2021/10/05 12:40:54;;;;;;;1.77;0.60;;;24.30;48.20;;;;;;5072510;28;20028;-72
2021/10/05 12:43:42;;;;;;;2.63;1.00;;;24.80;52.40;;;;;;5072602;28;20100;-72
2021/10/05 12:46:13;;;;;;;2.50;0.70;;;26.30;53.50;;;;;;5071359;28;20036;-72
2021/10/05 12:48:45;;;;;;;2.50;0.57;;;27.20;43.90;;;;;;5072261;28;20016;-72
2021/10/05 12:51:10;;;;;;;2.53;0.50;;;27.70;45.80;;;;;;5072185;28;20033;-72